Logo AVAMET
Benvolgut visitant, si us plau, ingressa Recuperar contrasenya
AVAMET paisatges

Inforatge Riola

Dades diàries. Acumulats / Últims 30 dies disponibles

Data Temperatura (°C) Humitat rel. (%) Pressió rel. (hPa) Vent (km/h) Precipitació
Mínima Mitjana Màxima Amplitud
tèrmica
Mínima Mitjana Màxima Mínima Mitjana Màxima Predom. Mitjana Ràfega
màxima
Total
(mm)
Índex-n
Mínima Mitjana Màxima Mínima Mitjana Màxima n
0 a 1
P0 max
mm 5'
Dades mensuals acumulades fins l'últim dia disponible
01/2021 0,3 5,1 11,2 8,8 7,1 14,0 20,5 20,2 24 65 97 1.003 1.017 1.030   6,8 86,9 95,2
Dades anuals acumulades fins l'últim dia disponible
2021 0,3 5,1 11,2 8,8 7,1 14,0 20,5 20,2 24 65 97 1.003 1.017 1.030   6,8 86,9 95,2
Últims 30 dies disponibles
23-01-2021 10,9     13,8     18,0 7,1 46 57 64 1.005 1.013 1.017 O 13,2 48,3 0,0
22-01-2021 11,2     15,3     20,3 9,1 35 57 70 1.003 1.010 1.015 W 15,3 86,9 0,0
21-01-2021 8,6     14,8     18,9 10,3 47 54 57 1.014 1.014 1.015 WNW 9,5 46,7 0,0
20-01-2021 4,3     6,3     12,6 8,3 60 84 95 1.012 1.016 1.020 WNW 2,7 17,7 0,2
19-01-2021 4,3     9,6     15,8 11,5 56 81 94 1.020 1.025 1.028 WNW 4,0 17,7 0,0
18-01-2021 5,8     10,9     17,1 11,3 44 68 92 1.026 1.027 1.030 WNW 5,3 19,3 0,0
17-01-2021 8,7     13,2     20,5 11,8 24 38 45 1.024 1.026 1.028 W 8,9 27,4 0,0
16-01-2021 5,4     10,2     17,6 12,2 32 51 65 1.023 1.026 1.028 W 5,5 22,5 0,0
15-01-2021 8,2     11,2     17,2 9,0 35 54 63 1.022 1.023 1.026 W 7,4 27,4 0,0
14-01-2021 5,3     9,6     17,3 12,0 30 53 70 1.022 1.024 1.028 W 5,8 20,9 0,0
13-01-2021 2,5     8,2     16,4 13,9 33 54 72 1.027 1.028 1.029 W 5,8 22,5 0,0
12-01-2021 2,6     6,3     12,6 10,0 31 55 78 1.026 1.027 1.029 W 8,4 29,0 0,0
11-01-2021 2,4     5,9     10,6 8,2 61 81 93 1.017 1.021 1.026 NNW 1,9 11,3 0,0
10-01-2021 2,1     5,5     8,9 6,8 74 87 93 1.008 1.012 1.018 WNW 3,9 16,1 0,0
09-01-2021 4,3     5,5     7,6 3,3 89 93 95 1.005 1.007 1.008 W 6,1 32,2 23,0 0,30 0,60
08-01-2021 4,6     6,4     8,1 3,5 78 90 97 1.008 1.011 1.014 ENE 7,4 32,2 40,6 0,42 0,50
07-01-2021 4,7     5,6     7,1 2,4 81 92 95 1.011 1.013 1.015 WNW 2,6 17,7 31,4 0,54 0,60
06-01-2021 0,3     5,5     10,9 10,6 42 65 83 1.013 1.014 1.016 WNW 3,5 12,9 0,0
05-01-2021 3,4     6,6     12,6 9,2 34 60 77 1.011 1.012 1.014 WNW 4,3 19,3 0,0
04-01-2021 3,9     8,1     11,8 7,9 44 58 74 1.010 1.012 1.014 W 9,7 40,2 0,0
03-01-2021 3,5     7,7     13,9 10,4 34 50 61 1.012 1.013 1.015 W 8,2 30,6 0,0
02-01-2021 4,0     7,1     11,9 7,9 39 54 67 1.008 1.010 1.012 W 9,5 37,0 0,0
01-01-2021 6,7     10,0     14,4 7,7 37 58 72 1.006 1.008 1.010 WNW 7,6 33,8 0,0
31-12-2020 6,8     10,2     15,1 8,3 39 53 62 1.010 1.015 1.018 W 8,9 35,4 0,0
30-12-2020 6,3     9,4     14,2 7,9 40 54 67 1.010 1.015 1.018 W 8,4 27,4 0,0
29-12-2020 7,8     10,3     13,6 5,8 48 58 67 1.004 1.006 1.010 W 10,5 48,3 0,0
28-12-2020 9,9     13,1     16,6 6,7 28 46 65 996 1.001 1.005 WNW 15,0 56,3 0,0
27-12-2020 4,6     10,8     17,0 12,4 26 43 60 1.002 1.013 1.023 W 8,5 37,0 0,0
26-12-2020 3,9     8,1     14,6 10,7 27 47 58 1.023 1.025 1.028 WNW 6,0 24,1 0,0
25-12-2020 8,1     10,8     13,2 5,1 25 61 94 1.021 1.024 1.027 WNW 3,2 30,6 0,0
Últims 13 mesos disponibles
12/2020 3,9 8,5 14,9 12,4 13,0 17,3 22,7 18,8 43 65 88 998 1.015 1.028 WNW 7,4 56,3 9,2
11/2020 6,7 11,8 16,7 15,3 14,9 19,9 24,2 17,5 0 78 94 0 946 1.030 WNW 4,3 53,1 523,2
10/2020 9,1 13,8 18,4 18,7 20,4 24,5 32,7 23,6 0 39 85 0 677 1.022 WNW 5,9 62,8 5,6
09/2020 12,4 18,6 21,8 23,2 24,3 28,3 31,3 18,9 39 68 83 1.011 1.017 1.023 WNW 5,6 43,5 29,2
08/2020 15,3 22,3 25,3 26,2 25,8 31,4 35,6 20,3 51 72 85 1.004 1.014 1.018 WNW 4,1 38,6 3,0
07/2020 19,1 21,9 23,7 26,0 27,4 30,3 33,8 14,7 59 77 86 1.011 1.016 1.020 SSO 4,8 35,4 14,0
06/2020 15,1 18,9 22,6 23,4 21,4 28,4 33,3 18,2 37 71 84 1.005 1.014 1.021 WNW 5,8 38,6 37,6
05/2020 12,9 16,1 18,8 21,0 19,7 26,1 33,9 21,0 51 70 81 1.006 1.015 1.026 SW 4,8 43,5 21,6
04/2020 8,5 12,5 17,8 16,0 15,9 20,3 27,3 18,8 50 79 93 1.006 1.016 1.026 SW 4,2 38,6 62,6
03/2020 5,4 10,5 16,3 14,3 10,8 18,7 24,3 18,9 44 73 92 1.007 1.018 1.027 SW 5,6 74,0 101,0
02/2020 5,5 9,9 15,5 14,7 14,8 20,7 27,0 21,5 49 73 88 1.014 1.026 1.033 SW 4,4 38,6 2,4
01/2020 3,1 7,5 14,4 11,5 10,4 16,1 20,8 17,7 58 76 93 1.016 1.024 1.031 SW 4,5 64,4 229,2
12/2019 7,8 11,1 18,0 14,6 14,1 18,3 25,9 18,1 50 72 91 1.003 1.019 1.033 SW 6,2 72,4 129,0
Tots els anys disponibles
2020 3,1 14,2 25,3 18,4 10,4 23,4 35,6 32,5 0 70 94 0 985 1.033 WNW 5,1 74,0 1.038,6
2019 1,8 14,0 25,8 18,6 13,2 23,7 41,7 39,9 0 69 95 0 1.014 1.034 S 5,0 72,4 442,0
2018 1,4 14,2 26,9 18,5 8,5 23,3 37,1 35,7 39 71 94 994 1.017 1.036 SSO 4,6 61,1 718,2
Temperatura (°C)
Humitat relativa (%)
Velocitat del vent i ràfega màxima (km/h)
Direcció del vent (°)
Pressió (hPa)
Precipitació (mm)
Nota sobre les dades: s'avisa a l'usuari de la provisionalitat i no oficialitat d'aquestes dades
Logo AVAMET blanc
Web allotjada a Sollutia
Llicència de Creative CommonsLa web d'AVAMET i els seus continguts estan subjectes a una llicència de
Reconeixement - No Comercial - Compartir igual
Avís legal - Política de privacitat - Política de cookies
NOVES ESTACIONS: Dénia - la Xara (Soci), Rossell - la Vila (Soci), Onda - CR Cota 220 (Soci), Artana (Ajuntament/Soci), Sax (Soci), Benicarló - Sant Gregori (Soci), Riba-roja de Túria - la Reva (Soci), Castielfabib - Arroyo Cerezo (Pròpia d'AVAMET), Tavernes de la Valldigna - Ull del Bou/Cambro (Soci), Chella - Casa Conde (Soci), El Genovés (Inforatge) - - -